Time;durP1;ratioP1;P1;durP2;ratioP2;P2;SDS_P1;SDS_P2;PMS_P1;PMS_P2;Temp;Humidity;BMP_temperature;BMP_pressure;BME280_temperature;BME280_humidity;BME280_pressure;Samples;Min_cycle;Max_cycle;Signal;HPM_P1;HPM_P2
2022/12/10 00:01:17;;;;;;;6.13;5.53;;;;;;;1.33;100.00;96333.78;6260704;28;20314;-67
2022/12/10 00:04:21;;;;;;;6.83;5.10;;;;;;;1.34;100.00;96335.44;6265513;28;20225;-67
2022/12/10 00:07:23;;;;;;;7.97;6.17;;;;;;;1.34;100.00;96340.66;6249793;28;20777;-67
2022/12/10 00:10:25;;;;;;;7.63;5.60;;;;;;;1.33;100.00;96333.78;6264428;28;20230;-68
2022/12/10 00:13:27;;;;;;;7.33;5.70;;;;;;;1.33;100.00;96331.19;6258340;28;20766;-67
2022/12/10 00:16:33;;;;;;;6.63;5.60;;;;;;;1.33;100.00;96339.81;6259911;28;20870;-67
2022/12/10 00:19:36;;;;;;;8.07;5.90;;;;;;;1.32;100.00;96335.56;6266480;28;20727;-68
2022/12/10 00:22:38;;;;;;;6.93;5.27;;;;;;;1.32;100.00;96348.53;6267070;28;20702;-68
2022/12/10 00:25:41;;;;;;;6.73;5.20;;;;;;;1.33;100.00;96342.41;6248390;28;20225;-67
2022/12/10 00:28:44;;;;;;;6.13;5.13;;;;;;;1.35;100.00;96344.91;6265140;28;20239;-67
2022/12/10 00:31:46;;;;;;;6.23;5.03;;;;;;;1.33;100.00;96358.00;6247618;28;20223;-67
2022/12/10 00:34:48;;;;;;;6.13;5.10;;;;;;;1.33;100.00;96352.81;6266881;28;20319;-67
2022/12/10 00:37:50;;;;;;;5.83;4.77;;;;;;;1.32;100.00;96361.53;6238388;28;20317;-67
2022/12/10 00:40:52;;;;;;;6.00;4.60;;;;;;;1.30;100.00;96360.00;6245947;28;20258;-67
2022/12/10 00:43:54;;;;;;;6.13;4.53;;;;;;;1.29;100.00;96363.53;6265985;28;20318;-67
2022/12/10 00:46:56;;;;;;;5.93;4.40;;;;;;;1.30;100.00;96371.19;6255503;28;20227;-67
2022/12/10 00:49:59;;;;;;;7.10;5.33;;;;;;;1.31;100.00;96385.84;6250019;28;20319;-67
2022/12/10 00:53:01;;;;;;;5.17;4.40;;;;;;;1.31;100.00;96388.44;6265996;28;20617;-67
2022/12/10 00:56:04;;;;;;;5.20;4.50;;;;;;;1.34;100.00;96382.22;6266147;28;20277;-67
2022/12/10 00:59:06;;;;;;;5.63;4.47;;;;;;;1.33;99.60;96375.38;6264417;28;20235;-67
2022/12/10 01:02:09;;;;;;;5.70;4.87;;;;;;;1.36;99.92;96388.16;6248351;28;20254;-68
2022/12/10 01:05:12;;;;;;;4.40;3.60;;;;;;;1.34;99.13;96380.47;6265458;28;20307;-68
2022/12/10 01:08:14;;;;;;;4.47;3.77;;;;;;;1.35;99.27;96383.91;6263918;28;20238;-68
2022/12/10 01:11:18;;;;;;;4.80;3.83;;;;;;;1.38;99.52;96384.56;6247922;28;20230;-67
2022/12/10 01:14:26;;;;;;;4.57;4.17;;;;;;;1.38;99.65;96381.13;6268179;28;20558;-67
2022/12/10 01:17:29;;;;;;;5.50;4.30;;;;;;;1.35;99.38;96376.94;6262145;28;20291;-67
2022/12/10 01:20:35;;;;;;;4.20;3.80;;;;;;;1.36;99.08;96373.41;6250836;28;20319;-67
2022/12/10 01:23:40;;;;;;;4.47;4.07;;;;;;;1.37;98.92;96371.66;6262269;28;20573;-67
2022/12/10 01:26:42;;;;;;;4.10;3.73;;;;;;;1.36;99.32;96368.22;6265329;28;20322;-67
2022/12/10 01:29:44;;;;;;;4.63;4.10;;;;;;;1.35;99.53;96368.31;6247093;28;20224;-67
2022/12/10 01:32:46;;;;;;;4.97;3.97;;;;;;;1.36;99.09;96377.78;6263450;28;20227;-67
2022/12/10 01:35:48;;;;;;;5.30;4.80;;;;;;;1.36;99.42;96368.22;6247106;28;20250;-67
2022/12/10 01:38:52;;;;;;;4.00;3.60;;;;;;;1.38;99.14;96371.56;6265500;28;20278;-67
2022/12/10 01:41:56;;;;;;;4.53;3.70;;;;;;;1.39;98.76;96352.44;6265252;28;20240;-67
2022/12/10 01:45:06;;;;;;;5.50;4.50;;;;;;;1.36;98.16;96352.63;6264093;28;20226;-66
2022/12/10 01:48:08;;;;;;;5.03;3.80;;;;;;;1.38;98.19;96352.53;6260780;28;20238;-67
2022/12/10 01:51:12;;;;;;;5.00;4.10;;;;;;;1.39;97.65;96378.41;6265275;28;20594;-67
2022/12/10 01:54:19;;;;;;;5.27;4.20;;;;;;;1.41;97.79;96394.72;6246060;28;20738;-67
2022/12/10 01:57:27;;;;;;;5.47;4.60;;;;;;;1.42;98.00;96387.75;6260818;28;20317;-67
2022/12/10 02:00:34;;;;;;;4.47;3.67;;;;;;;1.44;98.62;96397.13;6247154;28;20238;-67
2022/12/10 02:04:10;;;;;;;4.83;3.67;;;;;;;1.44;98.37;96409.31;6263420;28;20272;-67
2022/12/10 02:07:15;;;;;;;4.60;3.87;;;;;;;1.44;98.75;96424.91;6248612;28;20274;-67
2022/12/10 02:10:54;;;;;;;5.13;4.23;;;;;;;1.44;99.01;96424.91;6240234;28;20269;-67
2022/12/10 02:14:12;;;;;;;4.80;4.10;;;;;;;1.43;99.52;96418.84;6241199;28;20768;-67
2022/12/10 02:17:22;;;;;;;6.13;4.80;;;;;;;1.43;99.09;96405.03;6241147;28;20233;-67
2022/12/10 02:20:36;;;;;;;5.17;4.57;;;;;;;1.40;99.33;96390.47;6265697;28;20220;-67
2022/12/10 02:23:49;;;;;;;5.70;4.90;;;;;;;1.40;98.69;96400.03;6248837;28;20736;-67
2022/12/10 02:27:06;;;;;;;5.60;4.70;;;;;;;1.43;98.22;96407.63;6253061;28;20228;-67
2022/12/10 02:30:09;;;;;;;5.80;5.10;;;;;;;1.43;97.60;96403.25;6249925;28;20233;-67
2022/12/10 02:33:13;;;;;;;6.47;5.27;;;;;;;1.42;97.71;96406.78;6249861;28;20220;-66
2022/12/10 02:36:18;;;;;;;5.80;4.93;;;;;;;1.42;97.42;96408.56;6245260;28;20362;-67
2022/12/10 02:39:30;;;;;;;6.10;5.07;;;;;;;1.40;97.20;96413.84;6267980;28;20232;-67
2022/12/10 02:42:38;;;;;;;5.50;4.87;;;;;;;1.41;96.98;96415.53;6250539;28;20238;-67
2022/12/10 02:45:43;;;;;;;7.10;5.60;;;;;;;1.38;96.91;96401.91;6249990;28;20229;-67
2022/12/10 02:48:48;;;;;;;6.13;5.30;;;;;;;1.37;96.87;96411.47;6249537;28;20217;-67
2022/12/10 02:51:52;;;;;;;6.73;5.50;;;;;;;1.38;96.22;96412.31;6252022;28;20649;-67
2022/12/10 02:54:56;;;;;;;8.53;5.33;;;;;;;1.38;96.44;96413.13;6252645;28;20995;-67
2022/12/10 02:58:17;;;;;;;6.37;5.17;;;;;;;1.39;96.44;96417.41;6250142;28;20817;-67
2022/12/10 03:01:41;;;;;;;6.37;5.13;;;;;;;1.40;96.19;96426.84;6252238;28;20242;-68
2022/12/10 03:05:02;;;;;;;6.13;5.40;;;;;;;1.38;95.98;96418.34;6264844;28;20376;-67
2022/12/10 03:08:18;;;;;;;6.57;5.13;;;;;;;1.38;96.01;96420.94;6231630;28;20265;-68
2022/12/10 03:11:23;;;;;;;7.50;6.40;;;;;;;1.38;95.92;96410.53;6265630;28;20228;-67
2022/12/10 03:14:30;;;;;;;7.87;6.17;;;;;;;1.38;95.80;96418.34;6263906;28;20716;-67
2022/12/10 03:17:34;;;;;;;6.57;5.60;;;;;;;1.38;95.32;96409.72;6252877;28;20231;-67
2022/12/10 03:20:42;;;;;;;7.57;5.90;;;;;;;1.38;95.96;96414.91;6266570;28;20713;-67
2022/12/10 03:23:47;;;;;;;8.80;6.37;;;;;;;1.37;95.49;96414.06;6267457;28;20227;-67
2022/12/10 03:26:52;;;;;;;7.03;5.97;;;;;;;1.39;95.54;96411.38;6268199;28;20770;-68
2022/12/10 03:29:57;;;;;;;7.57;6.40;;;;;;;1.39;95.59;96420.00;6266603;28;20232;-68
2022/12/10 03:33:01;;;;;;;8.43;6.43;;;;;;;1.40;95.83;96420.81;6244979;28;20729;-67
2022/12/10 03:36:05;;;;;;;6.50;5.73;;;;;;;1.41;95.90;96425.91;6248170;28;20315;-67
2022/12/10 03:39:08;;;;;;;7.60;6.43;;;;;;;1.38;95.83;96420.94;6267765;28;20211;-67
2022/12/10 03:42:10;;;;;;;8.37;6.43;;;;;;;1.40;96.12;96428.59;6267728;28;20668;-67
2022/12/10 03:45:12;;;;;;;8.70;6.27;;;;;;;1.40;95.80;96445.03;6266358;28;20331;-67
2022/12/10 03:48:14;;;;;;;10.20;6.87;;;;;;;1.40;96.29;96445.03;6268651;28;20704;-67
2022/12/10 03:51:16;;;;;;;7.13;6.40;;;;;;;1.42;96.03;96453.59;6268791;28;20791;-67
2022/12/10 03:54:18;;;;;;;7.57;6.30;;;;;;;1.43;96.25;96460.44;6262708;28;20280;-67
2022/12/10 03:57:20;;;;;;;7.50;6.33;;;;;;;1.44;95.96;96469.91;6267446;28;20255;-67
2022/12/10 04:00:22;;;;;;;6.90;5.83;;;;;;;1.44;95.94;96456.94;6267492;28;20731;-68
2022/12/10 04:03:24;;;;;;;8.47;6.37;;;;;;;1.43;95.58;96452.66;6267092;28;20738;-67
2022/12/10 04:06:26;;;;;;;7.27;6.20;;;;;;;1.43;95.41;96449.22;6250383;28;20666;-67
2022/12/10 04:09:28;;;;;;;8.70;6.63;;;;;;;1.39;95.73;96456.41;6266772;28;20641;-67
2022/12/10 04:12:30;;;;;;;8.87;6.83;;;;;;;1.41;95.86;96456.28;6266500;28;20255;-67
2022/12/10 04:19:09;;;;;;;7.93;6.03;;;;;;;1.41;96.24;96477.91;6266006;28;20637;-67
2022/12/10 04:28:54;;;;;;;8.23;6.80;;;;;;;1.41;96.61;96477.06;6265585;28;20223;-67
2022/12/10 04:31:56;;;;;;;8.90;6.90;;;;;;;1.41;96.52;96480.50;6244551;28;20238;-67
2022/12/10 04:34:58;;;;;;;8.50;6.57;;;;;;;1.42;96.66;96481.34;6265139;28;20877;-67
2022/12/10 04:38:01;;;;;;;8.30;7.20;;;;;;;1.43;96.81;96478.66;6267459;28;20227;-67
2022/12/10 04:41:15;;;;;;;8.67;6.90;;;;;;;1.43;96.66;96470.84;6266576;28;20227;-67
2022/12/10 04:44:18;;;;;;;9.30;7.33;;;;;;;1.43;96.31;96462.22;6263696;28;20234;-67
2022/12/10 04:47:20;;;;;;;11.17;8.03;;;;;;;1.42;96.65;96463.13;6272611;28;20591;-67
2022/12/10 04:50:22;;;;;;;10.17;8.17;;;;;;;1.37;96.16;96455.66;6269003;28;20266;-66
2022/12/10 04:53:24;;;;;;;10.33;8.07;;;;;;;1.35;96.45;96448.88;6248929;28;20230;-67
2022/12/10 04:56:26;;;;;;;11.30;8.53;;;;;;;1.33;95.77;96454.16;6245070;28;20238;-67
2022/12/10 04:59:28;;;;;;;10.67;8.10;;;;;;;1.31;95.77;96445.63;6264969;28;20231;-67
2022/12/10 05:02:31;;;;;;;10.03;8.27;;;;;;;1.32;95.45;96451.66;6267021;28;20233;-67
2022/12/10 05:05:36;;;;;;;11.80;9.63;;;;;;;1.31;95.37;96445.63;6264081;28;20235;-67
2022/12/10 05:08:40;;;;;;;11.43;8.60;;;;;;;1.31;95.41;96448.22;6266039;28;20706;-67
2022/12/10 05:11:44;;;;;;;9.87;7.73;;;;;;;1.29;95.64;96450.13;6263963;28;20269;-66
2022/12/10 05:14:46;;;;;;;11.60;8.63;;;;;;;1.29;96.03;96444.91;6265847;28;20227;-67
2022/12/10 05:17:48;;;;;;;10.70;7.90;;;;;;;1.32;95.99;96449.06;6261785;28;20238;-67
2022/12/10 05:20:50;;;;;;;12.00;8.73;;;;;;;1.30;96.24;96437.97;6265641;28;20221;-67
2022/12/10 05:23:52;;;;;;;11.60;8.80;;;;;;;1.31;96.08;96444.78;6265180;28;20715;-67
2022/12/10 05:26:56;;;;;;;12.00;9.40;;;;;;;1.31;96.09;96450.81;6265517;28;20223;-67
2022/12/10 05:29:58;;;;;;;11.83;9.00;;;;;;;1.32;96.13;96449.06;6261205;28;20258;-67
2022/12/10 05:33:00;;;;;;;13.63;9.60;;;;;;;1.32;96.38;96456.84;6263735;28;20756;-67
2022/12/10 05:36:04;;;;;;;13.23;9.87;;;;;;;1.33;95.95;96456.75;6260141;28;20224;-67
2022/12/10 05:39:06;;;;;;;12.67;9.40;;;;;;;1.33;96.38;96454.16;6265443;28;20702;-67
2022/12/10 05:42:08;;;;;;;13.37;9.27;;;;;;;1.31;96.25;96450.81;6264066;28;20298;-67
2022/12/10 05:45:11;;;;;;;12.53;9.73;;;;;;;1.29;95.76;96452.72;6264861;28;20233;-67
2022/12/10 05:48:16;;;;;;;13.40;9.53;;;;;;;1.29;96.41;96457.91;6263056;28;20317;-67
2022/12/10 05:51:22;;;;;;;14.60;9.73;;;;;;;1.29;96.36;96467.47;6262400;28;20290;-67
2022/12/10 05:54:24;;;;;;;13.77;10.00;;;;;;;1.29;96.63;96472.66;6266116;28;20234;-67
2022/12/10 05:57:26;;;;;;;11.47;8.40;;;;;;;1.32;96.46;96481.09;6260856;28;20223;-68
2022/12/10 06:00:28;;;;;;;11.80;8.87;;;;;;;1.33;96.60;96492.31;6270221;28;20240;-68
2022/12/10 06:03:30;;;;;;;11.83;9.43;;;;;;;1.32;96.82;96498.44;6270805;28;20322;-67
2022/12/10 06:06:36;;;;;;;14.77;10.03;;;;;;;1.32;96.79;96494.06;6268781;28;20605;-68
2022/12/10 06:09:40;;;;;;;14.70;10.17;;;;;;;1.28;95.73;96497.81;6253122;28;20236;-67
2022/12/10 06:12:42;;;;;;;16.03;10.73;;;;;;;1.29;96.25;96504.69;6251106;28;20250;-67
2022/12/10 06:15:44;;;;;;;14.93;10.03;;;;;;;1.29;95.80;96502.09;6270652;28;20250;-68
2022/12/10 06:18:46;;;;;;;12.43;9.27;;;;;;;1.30;96.34;96510.72;6266224;28;20229;-67
2022/12/10 06:21:51;;;;;;;16.23;10.80;;;;;;;1.31;96.00;96507.16;6270532;28;20651;-67
2022/12/10 06:24:53;;;;;;;13.47;9.97;;;;;;;1.28;95.83;96508.22;6249666;28;20696;-67
2022/12/10 06:27:55;;;;;;;15.87;10.60;;;;;;;1.28;96.01;96518.59;6252965;28;20716;-67
2022/12/10 06:30:59;;;;;;;15.63;10.40;;;;;;;1.29;96.05;96529.84;6267722;28;20231;-67
2022/12/10 06:34:01;;;;;;;18.70;12.10;;;;;;;1.28;95.80;96542.00;6269971;28;20241;-67
2022/12/10 06:37:07;;;;;;;18.63;11.37;;;;;;;1.27;95.65;96536.88;6267787;28;20236;-67
2022/12/10 06:40:09;;;;;;;14.90;10.60;;;;;;;1.27;95.11;96523.91;6263789;28;20234;-67
2022/12/10 06:43:11;;;;;;;16.03;11.07;;;;;;;1.26;95.05;96530.84;6269939;28;20774;-67
2022/12/10 06:46:16;;;;;;;15.47;9.87;;;;;;;1.25;95.61;96534.38;6260019;28;20264;-67
2022/12/10 06:49:19;;;;;;;14.57;10.50;;;;;;;1.26;95.40;96537.81;6266947;28;20328;-67
2022/12/10 06:52:21;;;;;;;14.70;10.83;;;;;;;1.25;95.65;96531.78;6264966;28;20722;-67
2022/12/10 06:55:23;;;;;;;15.60;10.77;;;;;;;1.25;95.39;96529.19;6265099;28;20745;-67
2022/12/10 06:58:30;;;;;;;16.43;10.90;;;;;;;1.23;95.21;96518.03;6266666;28;20597;-67
2022/12/10 07:01:32;;;;;;;16.83;11.57;;;;;;;1.23;95.61;96512.84;6253698;28;20380;-67
2022/12/10 07:04:35;;;;;;;17.03;12.30;;;;;;;1.22;95.87;96511.16;6252505;28;20357;-67
2022/12/10 07:07:37;;;;;;;16.83;11.60;;;;;;;1.21;95.85;96516.47;6270276;28;20228;-67
2022/12/10 07:10:49;;;;;;;14.57;11.50;;;;;;;1.19;96.04;96519.19;6269125;28;20232;-66
2022/12/10 07:13:58;;;;;;;14.73;11.37;;;;;;;1.19;95.62;96503.59;6249121;28;20488;-67
2022/12/10 07:17:02;;;;;;;18.87;12.30;;;;;;;1.19;96.14;96502.75;6263148;28;20220;-67
2022/12/10 07:20:04;;;;;;;16.30;11.23;;;;;;;1.16;95.79;96511.56;6261804;28;20229;-67
2022/12/10 07:23:07;;;;;;;17.17;11.57;;;;;;;1.16;96.00;96502.94;6267510;28;20243;-67
2022/12/10 07:26:13;;;;;;;17.03;11.37;;;;;;;1.17;96.05;96505.44;6266392;28;20235;-67
2022/12/10 07:29:21;;;;;;;16.37;11.57;;;;;;;1.18;95.97;96491.53;6265432;28;20718;-67
2022/12/10 07:32:24;;;;;;;15.67;11.57;;;;;;;1.18;96.33;96483.72;6269233;28;20233;-67
2022/12/10 07:35:27;;;;;;;18.00;12.13;;;;;;;1.20;96.14;96484.44;6265336;28;20260;-67
2022/12/10 07:38:29;;;;;;;15.87;11.20;;;;;;;1.21;96.11;96496.50;6267697;28;20218;-67
2022/12/10 07:41:31;;;;;;;17.23;12.10;;;;;;;1.22;95.79;96487.78;6267045;28;20331;-67
2022/12/10 07:44:34;;;;;;;16.40;11.33;;;;;;;1.25;96.25;96494.56;6267022;28;20240;-67
2022/12/10 07:47:38;;;;;;;16.87;11.47;;;;;;;1.24;95.71;96487.69;6263671;28;20704;-66
2022/12/10 07:50:42;;;;;;;16.50;11.07;;;;;;;1.26;95.63;96485.84;6266867;28;20443;-67
2022/12/10 07:53:45;;;;;;;13.83;10.43;;;;;;;1.27;95.58;96485.75;6264970;28;20517;-67
2022/12/10 07:56:49;;;;;;;15.83;11.03;;;;;;;1.31;95.46;96491.56;6267558;28;20218;-67
2022/12/10 07:59:51;;;;;;;16.23;11.67;;;;;;;1.31;95.10;96491.56;6266112;28;20292;-67
2022/12/10 08:02:56;;;;;;;15.73;11.57;;;;;;;1.30;94.76;96487.34;6232053;28;21200;-67
2022/12/10 08:06:08;;;;;;;15.83;10.87;;;;;;;1.33;94.57;96495.75;6249306;28;20231;-67
2022/12/10 08:09:11;;;;;;;16.90;11.37;;;;;;;1.33;94.42;96490.56;6263051;28;20234;-66
2022/12/10 08:12:14;;;;;;;15.33;10.83;;;;;;;1.38;94.86;96483.31;6265069;28;20321;-66
2022/12/10 08:15:16;;;;;;;17.83;12.33;;;;;;;1.40;95.18;96475.41;6264680;28;20216;-67
2022/12/10 08:18:18;;;;;;;18.97;12.57;;;;;;;1.46;95.21;96481.06;6264999;28;20223;-67
2022/12/10 08:21:23;;;;;;;19.40;12.27;;;;;;;1.45;94.72;96473.34;6264573;28;20220;-67
2022/12/10 08:24:25;;;;;;;21.20;13.23;;;;;;;1.45;94.18;96478.56;6262435;28;20223;-67
2022/12/10 08:27:27;;;;;;;16.63;12.27;;;;;;;1.44;94.46;96476.88;6265642;28;20578;-67
2022/12/10 08:30:30;;;;;;;18.10;12.93;;;;;;;1.45;94.70;96475.94;6264672;28;20296;-67
2022/12/10 08:33:34;;;;;;;20.40;12.97;;;;;;;1.44;94.50;96480.31;6248093;28;20229;-67
2022/12/10 08:36:37;;;;;;;16.67;12.07;;;;;;;1.43;94.58;96483.84;6264377;28;20243;-67
2022/12/10 08:39:40;;;;;;;19.63;12.63;;;;;;;1.40;94.59;96486.63;6265687;28;20327;-67
2022/12/10 08:42:42;;;;;;;20.60;12.53;;;;;;;1.39;94.82;96499.75;6267032;28;20591;-67
2022/12/10 08:45:44;;;;;;;19.40;12.70;;;;;;;1.37;94.43;96499.84;6264414;28;20339;-67
2022/12/10 08:48:46;;;;;;;19.20;12.80;;;;;;;1.41;94.49;96497.88;6261203;28;20219;-67
2022/12/10 08:51:48;;;;;;;19.27;12.63;;;;;;;1.40;94.39;96507.41;6265625;28;20707;-66
2022/12/10 08:54:51;;;;;;;20.60;13.07;;;;;;;1.43;94.85;96514.19;6264374;28;20227;-67
2022/12/10 08:57:53;;;;;;;19.97;13.13;;;;;;;1.44;94.26;96521.91;6246329;28;20587;-66
2022/12/10 09:00:55;;;;;;;21.33;13.13;;;;;;;1.50;94.62;96523.28;6262495;28;20715;-67
2022/12/10 09:03:58;;;;;;;19.57;12.23;;;;;;;1.54;94.79;96522.16;6263804;28;20230;-67
2022/12/10 09:07:01;;;;;;;18.80;12.83;;;;;;;1.57;94.55;96515.94;6265753;28;20268;-67
2022/12/10 09:10:04;;;;;;;22.07;14.33;;;;;;;1.54;93.83;96523.94;6264367;28;20321;-66
2022/12/10 09:13:06;;;;;;;20.70;13.70;;;;;;;1.56;93.95;96530.72;6265959;28;20238;-67
2022/12/10 09:16:09;;;;;;;20.13;12.70;;;;;;;1.61;94.23;96530.41;6262129;28;20748;-67
2022/12/10 09:19:11;;;;;;;22.53;14.57;;;;;;;1.66;94.03;96526.59;6262899;28;20218;-67
2022/12/10 09:22:20;;;;;;;23.10;13.57;;;;;;;1.67;93.44;96530.03;6263161;28;20234;-67
2022/12/10 09:25:22;;;;;;;24.10;14.40;;;;;;;1.66;92.85;96511.00;6261593;28;20329;-67
2022/12/10 09:28:24;;;;;;;21.27;14.37;;;;;;;1.74;93.44;96505.28;6264280;28;20235;-66
2022/12/10 09:31:27;;;;;;;21.87;14.30;;;;;;;1.80;93.19;96507.50;6245996;28;20599;-66
2022/12/10 09:34:31;;;;;;;19.63;13.90;;;;;;;1.83;92.60;96505.53;6260679;28;20250;-67
2022/12/10 09:37:33;;;;;;;23.30;15.13;;;;;;;1.91;92.65;96509.41;6247451;28;20371;-67
2022/12/10 09:40:43;;;;;;;20.80;14.17;;;;;;;1.84;91.72;96514.19;6261123;28;20763;-67
2022/12/10 09:43:50;;;;;;;23.10;15.03;;;;;;;1.83;91.91;96513.34;6245549;28;20237;-67
2022/12/10 09:46:57;;;;;;;26.07;16.17;;;;;;;1.85;92.19;96514.09;6261504;28;20371;-67
2022/12/10 09:50:28;;;;;;;23.53;16.13;;;;;;;1.92;92.41;96521.47;6244367;28;20248;-66
2022/12/10 09:53:32;;;;;;;22.77;14.93;;;;;;;1.87;92.22;96520.97;6265524;28;20955;-66
2022/12/10 09:56:39;;;;;;;23.20;15.33;;;;;;;1.89;92.30;96525.13;6259948;28;20227;-67
2022/12/10 09:59:46;;;;;;;22.23;14.10;;;;;;;1.91;92.24;96525.84;6247701;28;20237;-66
2022/12/10 10:02:50;;;;;;;21.93;15.17;;;;;;;1.95;92.34;96522.13;6266779;28;20342;-66
2022/12/10 10:05:56;;;;;;;25.60;16.37;;;;;;;1.90;91.51;96513.78;6261430;28;20258;-67
2022/12/10 10:09:02;;;;;;;23.60;16.33;;;;;;;1.94;91.71;96502.25;6246730;28;20706;-67
2022/12/10 10:12:13;;;;;;;25.77;16.53;;;;;;;1.92;91.39;96500.66;6245802;28;20252;-67
2022/12/10 10:15:22;;;;;;;24.77;16.13;;;;;;;1.99;91.88;96497.59;6256922;28;20227;-67
2022/12/10 10:18:40;;;;;;;29.93;17.40;;;;;;;2.07;91.87;96491.88;6259431;28;20303;-67
2022/12/10 10:21:49;;;;;;;23.90;16.47;;;;;;;2.11;91.38;96499.38;6262713;28;20322;-67
2022/12/10 10:24:51;;;;;;;31.17;16.10;;;;;;;2.10;91.16;96481.25;6264185;28;20314;-67
2022/12/10 10:27:54;;;;;;;25.47;15.97;;;;;;;2.08;90.58;96491.78;6266734;28;20275;-66
2022/12/10 10:30:56;;;;;;;24.43;15.50;;;;;;;2.07;90.50;96492.72;6259380;28;20620;-67
2022/12/10 10:34:04;;;;;;;29.63;18.07;;;;;;;2.09;90.79;96496.06;6265308;28;20237;-66
2022/12/10 10:37:07;;;;;;;27.33;16.53;;;;;;;2.01;90.19;96500.91;6263553;28;20233;-66
2022/12/10 10:40:39;;;;;;;24.97;16.70;;;;;;;2.09;90.96;96498.66;6263736;28;20676;-67
2022/12/10 10:43:47;;;;;;;26.53;16.53;;;;;;;2.14;90.50;96493.13;6266570;28;20722;-67
2022/12/10 10:46:52;;;;;;;25.70;16.70;;;;;;;2.25;90.99;96482.84;6265242;28;20603;-67
2022/12/10 10:49:54;;;;;;;28.37;17.37;;;;;;;2.33;90.64;96482.34;6269454;28;20265;-67
2022/12/10 10:52:56;;;;;;;28.63;17.57;;;;;;;2.35;90.35;96477.88;6269021;28;20236;-67
2022/12/10 10:56:06;;;;;;;27.23;17.00;;;;;;;2.31;89.53;96482.44;6268012;28;20286;-67
2022/12/10 10:59:17;;;;;;;24.17;16.73;;;;;;;2.31;90.22;96464.22;6269073;28;20327;-68
2022/12/10 11:02:41;;;;;;;26.13;16.87;;;;;;;2.20;89.41;96458.88;6270496;28;20227;-67
2022/12/10 11:05:47;;;;;;;26.20;17.17;;;;;;;2.23;89.67;96458.69;6273428;28;20264;-67
2022/12/10 11:08:54;;;;;;;26.23;16.97;;;;;;;2.17;89.69;96451.31;6249493;28;20224;-67
2022/12/10 11:12:02;;;;;;;28.33;17.30;;;;;;;2.33;90.58;96451.09;6269366;28;20319;-67
2022/12/10 11:15:29;;;;;;;33.00;17.20;;;;;;;2.42;89.58;96445.28;6262565;28;20760;-66
2022/12/10 11:18:36;;;;;;;26.57;17.30;;;;;;;2.40;89.55;96450.56;6246232;28;20361;-67
2022/12/10 11:21:38;;;;;;;27.30;17.27;;;;;;;2.44;89.51;96435.59;6267074;28;20298;-67
2022/12/10 11:24:40;;;;;;;25.10;16.63;;;;;;;2.49;89.29;96425.72;6266820;28;20246;-66
2022/12/10 11:28:01;;;;;;;26.00;16.77;;;;;;;2.47;88.53;96417.16;6250647;28;20336;-66
2022/12/10 11:31:09;;;;;;;25.57;16.17;;;;;;;2.47;89.11;96412.78;6264501;28;20233;-66
2022/12/10 11:34:42;;;;;;;25.40;16.47;;;;;;;2.45;88.92;96414.66;6264685;28;20722;-66
2022/12/10 11:37:54;;;;;;;28.43;18.40;;;;;;;2.46;88.47;96416.34;6250461;28;20708;-66
2022/12/10 11:41:20;;;;;;;28.13;17.00;;;;;;;2.49;89.74;96413.53;6265905;28;20233;-67
2022/12/10 11:44:27;;;;;;;22.97;15.23;;;;;;;2.47;88.29;96418.00;6264941;28;20264;-67
2022/12/10 11:47:40;;;;;;;26.80;17.40;;;;;;;2.46;88.79;96411.13;6260623;28;20240;-67
2022/12/10 11:51:04;;;;;;;27.57;17.83;;;;;;;2.53;88.70;96406.31;6266942;28;20225;-66
2022/12/10 11:54:26;;;;;;;25.00;16.27;;;;;;;2.47;88.42;96414.56;6261026;28;20237;-67
2022/12/10 11:57:47;;;;;;;24.23;16.13;;;;;;;2.46;88.54;96425.91;6265154;28;20314;-67
2022/12/10 12:01:10;;;;;;;25.40;15.37;;;;;;;2.41;88.55;96420.16;6250635;28;20289;-67
2022/12/10 12:04:40;;;;;;;23.87;15.77;;;;;;;2.32;89.12;96413.00;6264569;28;20232;-67
2022/12/10 12:07:53;;;;;;;27.83;16.40;;;;;;;2.27;89.26;96417.69;6265256;28;20238;-66
2022/12/10 12:11:04;;;;;;;25.97;15.93;;;;;;;2.14;89.58;96409.88;6265276;28;20245;-67
2022/12/10 12:14:15;;;;;;;27.80;17.60;;;;;;;2.10;90.13;96424.84;6261214;28;20229;-66
2022/12/10 12:17:28;;;;;;;28.40;16.87;;;;;;;2.10;90.38;96426.59;6261101;28;20337;-66
2022/12/10 12:20:37;;;;;;;29.50;18.10;;;;;;;2.11;90.38;96429.13;6265716;28;20261;-66
2022/12/10 12:23:59;;;;;;;23.53;16.43;;;;;;;2.12;90.70;96428.19;6248266;28;20240;-67
2022/12/10 12:27:13;;;;;;;30.20;18.13;;;;;;;2.09;91.02;96417.16;6243702;28;20272;-66
2022/12/10 12:30:19;;;;;;;27.87;17.97;;;;;;;1.99;91.35;96411.75;6248971;28;20271;-66
2022/12/10 12:33:23;;;;;;;30.17;18.60;;;;;;;1.93;91.87;96414.72;6248261;28;20691;-66
2022/12/10 12:36:34;;;;;;;30.33;19.60;;;;;;;1.91;92.27;96407.94;6266713;28;20308;-66
2022/12/10 12:39:49;;;;;;;28.77;18.37;;;;;;;1.88;91.76;96411.63;6263545;28;20237;-66
2022/12/10 12:43:17;;;;;;;33.13;19.30;;;;;;;1.90;91.66;96399.31;6261009;28;20277;-67
2022/12/10 12:46:37;;;;;;;27.87;17.97;;;;;;;1.94;91.36;96408.59;6259863;28;20297;-66
2022/12/10 12:49:41;;;;;;;32.40;19.37;;;;;;;1.98;91.17;96412.66;6253014;28;20793;-67
2022/12/10 12:52:50;;;;;;;30.83;18.43;;;;;;;1.98;91.08;96420.47;6265266;28;20241;-66
2022/12/10 12:56:05;;;;;;;29.83;18.43;;;;;;;1.99;90.93;96416.09;6262549;28;20723;-67
2022/12/10 12:59:19;;;;;;;27.07;16.43;;;;;;;2.03;91.23;96427.97;6259925;28;20237;-67
2022/12/10 13:02:40;;;;;;;29.63;17.87;;;;;;;2.02;91.40;96423.69;6243138;28;20719;-67
2022/12/10 13:05:43;;;;;;;29.93;18.10;;;;;;;1.96;91.88;96408.50;6259954;28;20654;-66
2022/12/10 13:09:07;;;;;;;32.70;19.93;;;;;;;1.90;91.90;96408.91;6264046;28;20585;-66
2022/12/10 13:12:15;;;;;;;30.10;18.70;;;;;;;1.89;92.55;96428.88;6226381;28;20279;-66
2022/12/10 13:15:36;;;;;;;33.50;20.13;;;;;;;1.80;92.33;96437.28;6263657;28;20308;-67
2022/12/10 13:18:39;;;;;;;31.73;19.33;;;;;;;1.72;92.42;96448.19;6260630;28;20227;-67
2022/12/10 13:21:50;;;;;;;29.50;19.07;;;;;;;1.75;92.68;96455.78;6263814;28;20309;-67
2022/12/10 13:25:13;;;;;;;32.40;19.80;;;;;;;1.74;92.66;96458.47;6265092;28;20240;-67
2022/12/10 13:28:40;;;;;;;30.33;18.90;;;;;;;1.65;92.25;96459.09;6262935;28;20227;-67
2022/12/10 13:31:56;;;;;;;27.97;18.03;;;;;;;1.63;92.64;96450.53;6260784;28;20240;-66
2022/12/10 13:35:07;;;;;;;30.47;18.43;;;;;;;1.64;92.66;96441.81;6261293;28;20606;-66
2022/12/10 13:38:25;;;;;;;46.53;24.07;;;;;;;1.61;93.33;96445.44;6260860;28;20229;-66
2022/12/10 13:44:58;;;;;;;29.10;17.80;;;;;;;1.54;93.26;96451.13;6261981;28;20236;-66
2022/12/10 13:48:19;;;;;;;30.27;18.97;;;;;;;1.49;93.35;96438.44;6261783;28;20603;-66
2022/12/10 13:51:27;;;;;;;26.60;17.20;;;;;;;1.49;93.86;96433.25;6233278;28;20325;-66
2022/12/10 13:55:19;;;;;;;27.30;17.37;;;;;;;1.48;93.97;96440.22;6266000;28;20241;-66
2022/12/10 13:59:10;;;;;;;28.80;17.03;;;;;;;1.50;94.12;96442.69;6146697;28;20244;-66
2022/12/10 14:02:24;;;;;;;28.73;17.43;;;;;;;1.50;94.46;96442.69;6135070;28;20233;-66
2022/12/10 14:05:47;;;;;;;29.47;17.87;;;;;;;1.52;94.47;96448.63;6144683;28;20252;-66
2022/12/10 14:09:10;;;;;;;28.10;18.03;;;;;;;1.46;94.37;96438.63;6148243;28;20236;-66
2022/12/10 14:12:20;;;;;;;26.33;17.47;;;;;;;1.46;95.06;96451.63;6147798;28;20734;-66
2022/12/10 14:15:25;;;;;;;30.07;17.83;;;;;;;1.43;94.97;96450.06;6146562;28;20769;-67
2022/12/10 14:18:30;;;;;;;30.90;19.17;;;;;;;1.43;95.20;96450.06;6149351;28;20366;-66
2022/12/10 14:21:38;;;;;;;31.87;19.27;;;;;;;1.40;95.32;96446.81;6154396;28;20227;-66
2022/12/10 14:24:43;;;;;;;31.03;18.53;;;;;;;1.35;94.92;96444.50;6149658;28;20773;-66
2022/12/10 14:27:53;;;;;;;34.17;20.93;;;;;;;1.37;95.41;96453.06;6145428;28;20571;-66
2022/12/10 14:30:55;;;;;;;29.80;18.50;;;;;;;1.40;95.37;96450.25;6157611;28;20792;-67
2022/12/10 14:34:04;;;;;;;29.27;18.27;;;;;;;1.45;95.64;96449.97;6261348;28;20236;-67
2022/12/10 14:37:13;;;;;;;29.47;18.77;;;;;;;1.46;95.46;96446.44;6245181;28;20237;-66
2022/12/10 14:40:23;;;;;;;26.40;16.77;;;;;;;1.46;95.65;96444.66;6266816;28;20239;-66
2022/12/10 14:43:35;;;;;;;29.70;17.93;;;;;;;1.47;95.72;96442.91;6267951;28;20722;-66
2022/12/10 14:46:37;;;;;;;28.00;17.07;;;;;;;1.48;95.21;96444.56;6269121;28;20652;-66
2022/12/10 14:49:43;;;;;;;29.17;18.87;;;;;;;1.43;95.17;96451.81;6267882;28;20449;-67
2022/12/10 14:52:50;;;;;;;30.50;18.83;;;;;;;1.41;94.80;96451.91;6271586;28;20318;-67